sensor_id;sensor_type;location;lat;lon;timestamp;temperature;humidity
67759;SHT31;54562;47.620;18.786;2022-08-18T00:01:24;23.23;48.02
67759;SHT31;54562;47.620;18.786;2022-08-18T00:04:36;23.25;47.77
67759;SHT31;54562;47.620;18.786;2022-08-18T00:07:51;23.27;47.64
67759;SHT31;54562;47.620;18.786;2022-08-18T00:11:00;23.30;47.65
67759;SHT31;54562;47.620;18.786;2022-08-18T00:14:10;23.37;47.56
67759;SHT31;54562;47.620;18.786;2022-08-18T00:17:24;23.44;47.51
67759;SHT31;54562;47.620;18.786;2022-08-18T00:20:34;23.50;47.68
67759;SHT31;54562;47.620;18.786;2022-08-18T00:23:44;23.55;47.82
67759;SHT31;54562;47.620;18.786;2022-08-18T00:26:54;23.57;48.03
67759;SHT31;54562;47.620;18.786;2022-08-18T00:30:04;23.60;48.11
67759;SHT31;54562;47.620;18.786;2022-08-18T00:33:16;23.60;48.25
67759;SHT31;54562;47.620;18.786;2022-08-18T00:36:25;23.59;48.45
67759;SHT31;54562;47.620;18.786;2022-08-18T00:39:35;23.60;48.46
67759;SHT31;54562;47.620;18.786;2022-08-18T00:42:51;23.58;48.49
67759;SHT31;54562;47.620;18.786;2022-08-18T00:46:06;23.55;48.68
67759;SHT31;54562;47.620;18.786;2022-08-18T00:49:18;23.53;49.00
67759;SHT31;54562;47.620;18.786;2022-08-18T00:52:26;23.52;49.50
67759;SHT31;54562;47.620;18.786;2022-08-18T00:55:36;23.52;50.08
67759;SHT31;54562;47.620;18.786;2022-08-18T00:58:58;23.52;50.65
67759;SHT31;54562;47.620;18.786;2022-08-18T01:02:10;23.51;50.95
67759;SHT31;54562;47.620;18.786;2022-08-18T01:05:25;23.50;51.54
67759;SHT31;54562;47.620;18.786;2022-08-18T01:08:36;23.49;52.00
67759;SHT31;54562;47.620;18.786;2022-08-18T01:11:45;23.49;52.52
67759;SHT31;54562;47.620;18.786;2022-08-18T01:14:53;23.50;52.48
67759;SHT31;54562;47.620;18.786;2022-08-18T01:18:03;23.50;52.67
67759;SHT31;54562;47.620;18.786;2022-08-18T01:21:35;23.47;53.01
67759;SHT31;54562;47.620;18.786;2022-08-18T01:24:56;23.47;53.51
67759;SHT31;54562;47.620;18.786;2022-08-18T01:28:29;23.44;53.97
67759;SHT31;54562;47.620;18.786;2022-08-18T01:31:40;23.44;54.46
67759;SHT31;54562;47.620;18.786;2022-08-18T01:34:57;23.45;54.62
67759;SHT31;54562;47.620;18.786;2022-08-18T01:38:06;23.43;54.78
67759;SHT31;54562;47.620;18.786;2022-08-18T01:41:15;23.42;54.98
67759;SHT31;54562;47.620;18.786;2022-08-18T01:44:32;23.41;55.15
67759;SHT31;54562;47.620;18.786;2022-08-18T01:47:43;23.39;55.42
67759;SHT31;54562;47.620;18.786;2022-08-18T01:50:53;23.38;55.81
67759;SHT31;54562;47.620;18.786;2022-08-18T01:54:02;23.36;55.98
67759;SHT31;54562;47.620;18.786;2022-08-18T01:57:12;23.34;56.17
67759;SHT31;54562;47.620;18.786;2022-08-18T02:00:24;23.33;56.48
67759;SHT31;54562;47.620;18.786;2022-08-18T02:03:36;23.30;56.76
67759;SHT31;54562;47.620;18.786;2022-08-18T02:06:50;23.28;57.31
67759;SHT31;54562;47.620;18.786;2022-08-18T02:10:00;23.28;57.58
67759;SHT31;54562;47.620;18.786;2022-08-18T02:13:14;23.26;57.95
67759;SHT31;54562;47.620;18.786;2022-08-18T02:16:22;23.26;58.08
67759;SHT31;54562;47.620;18.786;2022-08-18T02:19:32;23.24;58.38
67759;SHT31;54562;47.620;18.786;2022-08-18T02:22:43;23.23;58.50
67759;SHT31;54562;47.620;18.786;2022-08-18T02:25:52;23.19;58.64
67759;SHT31;54562;47.620;18.786;2022-08-18T02:29:00;23.16;58.63
67759;SHT31;54562;47.620;18.786;2022-08-18T02:32:08;23.11;58.72
67759;SHT31;54562;47.620;18.786;2022-08-18T02:35:16;23.07;58.88
67759;SHT31;54562;47.620;18.786;2022-08-18T02:38:25;23.02;59.20
67759;SHT31;54562;47.620;18.786;2022-08-18T02:41:35;22.96;59.54
67759;SHT31;54562;47.620;18.786;2022-08-18T02:44:44;22.92;59.63
67759;SHT31;54562;47.620;18.786;2022-08-18T02:47:52;22.85;59.98
67759;SHT31;54562;47.620;18.786;2022-08-18T02:51:02;22.81;60.38
67759;SHT31;54562;47.620;18.786;2022-08-18T02:54:15;22.78;60.65
67759;SHT31;54562;47.620;18.786;2022-08-18T02:57:26;22.76;61.03
67759;SHT31;54562;47.620;18.786;2022-08-18T03:00:36;22.76;61.42
67759;SHT31;54562;47.620;18.786;2022-08-18T03:03:44;22.75;61.61
67759;SHT31;54562;47.620;18.786;2022-08-18T03:06:53;22.74;61.95
67759;SHT31;54562;47.620;18.786;2022-08-18T03:10:03;22.73;62.27
67759;SHT31;54562;47.620;18.786;2022-08-18T03:13:33;22.71;62.46
67759;SHT31;54562;47.620;18.786;2022-08-18T03:16:43;22.71;62.84
67759;SHT31;54562;47.620;18.786;2022-08-18T03:19:57;22.70;63.04
67759;SHT31;54562;47.620;18.786;2022-08-18T03:23:06;22.69;63.34
67759;SHT31;54562;47.620;18.786;2022-08-18T03:26:16;22.69;63.33
67759;SHT31;54562;47.620;18.786;2022-08-18T03:29:26;22.68;63.52
67759;SHT31;54562;47.620;18.786;2022-08-18T03:32:35;22.68;63.56
67759;SHT31;54562;47.620;18.786;2022-08-18T03:35:47;22.66;63.59
67759;SHT31;54562;47.620;18.786;2022-08-18T03:38:56;22.65;63.86
67759;SHT31;54562;47.620;18.786;2022-08-18T03:42:08;22.62;64.24
67759;SHT31;54562;47.620;18.786;2022-08-18T03:45:17;22.60;64.24
67759;SHT31;54562;47.620;18.786;2022-08-18T03:48:27;22.59;64.34
67759;SHT31;54562;47.620;18.786;2022-08-18T03:51:36;22.57;64.62
67759;SHT31;54562;47.620;18.786;2022-08-18T03:54:49;22.57;64.63
67759;SHT31;54562;47.620;18.786;2022-08-18T03:57:59;22.55;64.70
67759;SHT31;54562;47.620;18.786;2022-08-18T04:01:08;22.54;64.87
67759;SHT31;54562;47.620;18.786;2022-08-18T04:04:28;22.55;64.76
67759;SHT31;54562;47.620;18.786;2022-08-18T04:07:38;22.57;64.63
67759;SHT31;54562;47.620;18.786;2022-08-18T04:10:47;22.58;64.61
67759;SHT31;54562;47.620;18.786;2022-08-18T04:13:57;22.60;64.63
67759;SHT31;54562;47.620;18.786;2022-08-18T04:17:06;22.61;64.67
67759;SHT31;54562;47.620;18.786;2022-08-18T04:20:14;22.62;64.82
67759;SHT31;54562;47.620;18.786;2022-08-18T04:23:24;22.64;64.92
67759;SHT31;54562;47.620;18.786;2022-08-18T04:26:46;22.66;65.08
67759;SHT31;54562;47.620;18.786;2022-08-18T04:29:55;22.69;65.19
67759;SHT31;54562;47.620;18.786;2022-08-18T04:33:03;22.71;65.26
67759;SHT31;54562;47.620;18.786;2022-08-18T04:36:12;22.73;65.23
67759;SHT31;54562;47.620;18.786;2022-08-18T04:39:23;22.76;65.13
67759;SHT31;54562;47.620;18.786;2022-08-18T04:42:31;22.79;65.13
67759;SHT31;54562;47.620;18.786;2022-08-18T04:45:45;22.86;65.03
67759;SHT31;54562;47.620;18.786;2022-08-18T04:48:54;22.98;64.93
67759;SHT31;54562;47.620;18.786;2022-08-18T04:52:06;23.10;64.63
67759;SHT31;54562;47.620;18.786;2022-08-18T04:55:46;23.24;64.33
67759;SHT31;54562;47.620;18.786;2022-08-18T04:58:59;23.34;64.03
67759;SHT31;54562;47.620;18.786;2022-08-18T05:02:12;23.43;63.75
67759;SHT31;54562;47.620;18.786;2022-08-18T05:05:26;23.53;63.47
67759;SHT31;54562;47.620;18.786;2022-08-18T05:08:35;23.61;63.25
67759;SHT31;54562;47.620;18.786;2022-08-18T05:11:44;23.69;63.07
67759;SHT31;54562;47.620;18.786;2022-08-18T05:14:53;23.78;62.88
67759;SHT31;54562;47.620;18.786;2022-08-18T05:18:02;23.87;62.67
67759;SHT31;54562;47.620;18.786;2022-08-18T05:21:15;23.98;62.41
67759;SHT31;54562;47.620;18.786;2022-08-18T05:24:27;24.07;62.12
67759;SHT31;54562;47.620;18.786;2022-08-18T05:27:40;24.16;61.78
67759;SHT31;54562;47.620;18.786;2022-08-18T05:30:48;24.25;61.52
67759;SHT31;54562;47.620;18.786;2022-08-18T05:34:02;24.35;61.28
67759;SHT31;54562;47.620;18.786;2022-08-18T05:37:18;24.42;61.08
67759;SHT31;54562;47.620;18.786;2022-08-18T05:40:38;24.52;60.92
67759;SHT31;54562;47.620;18.786;2022-08-18T05:43:47;24.61;60.60
67759;SHT31;54562;47.620;18.786;2022-08-18T05:46:58;24.71;60.39
67759;SHT31;54562;47.620;18.786;2022-08-18T05:50:16;24.83;60.21
67759;SHT31;54562;47.620;18.786;2022-08-18T05:53:25;24.97;59.83
67759;SHT31;54562;47.620;18.786;2022-08-18T05:56:49;25.12;59.50
67759;SHT31;54562;47.620;18.786;2022-08-18T06:00:02;25.26;59.19
67759;SHT31;54562;47.620;18.786;2022-08-18T06:03:15;25.38;58.81
67759;SHT31;54562;47.620;18.786;2022-08-18T06:06:31;25.47;58.42
67759;SHT31;54562;47.620;18.786;2022-08-18T06:09:49;25.57;58.21
67759;SHT31;54562;47.620;18.786;2022-08-18T06:12:59;25.66;57.90
67759;SHT31;54562;47.620;18.786;2022-08-18T06:16:13;25.76;57.58
67759;SHT31;54562;47.620;18.786;2022-08-18T06:19:36;25.88;57.09
67759;SHT31;54562;47.620;18.786;2022-08-18T06:22:58;26.00;56.74
67759;SHT31;54562;47.620;18.786;2022-08-18T06:26:22;26.13;56.31
67759;SHT31;54562;47.620;18.786;2022-08-18T06:29:49;26.27;55.91
67759;SHT31;54562;47.620;18.786;2022-08-18T06:33:11;26.40;55.64
67759;SHT31;54562;47.620;18.786;2022-08-18T06:36:48;26.53;55.09
67759;SHT31;54562;47.620;18.786;2022-08-18T06:40:03;26.64;54.78
67759;SHT31;54562;47.620;18.786;2022-08-18T06:43:13;26.76;54.48
67759;SHT31;54562;47.620;18.786;2022-08-18T06:46:25;26.87;54.08
67759;SHT31;54562;47.620;18.786;2022-08-18T06:49:41;26.98;53.83
67759;SHT31;54562;47.620;18.786;2022-08-18T06:52:58;27.11;53.50
67759;SHT31;54562;47.620;18.786;2022-08-18T06:56:33;27.22;53.19
67759;SHT31;54562;47.620;18.786;2022-08-18T06:59:56;27.36;53.29
67759;SHT31;54562;47.620;18.786;2022-08-18T07:03:12;27.53;52.95
67759;SHT31;54562;47.620;18.786;2022-08-18T07:06:25;27.67;52.63
67759;SHT31;54562;47.620;18.786;2022-08-18T07:09:36;27.76;52.38
67759;SHT31;54562;47.620;18.786;2022-08-18T07:12:45;27.85;52.03
67759;SHT31;54562;47.620;18.786;2022-08-18T07:15:54;27.96;52.05
67759;SHT31;54562;47.620;18.786;2022-08-18T07:19:41;28.06;51.61
67759;SHT31;54562;47.620;18.786;2022-08-18T07:22:58;28.14;51.40
67759;SHT31;54562;47.620;18.786;2022-08-18T07:26:11;28.24;51.35
67759;SHT31;54562;47.620;18.786;2022-08-18T07:29:21;28.38;51.13
67759;SHT31;54562;47.620;18.786;2022-08-18T07:32:31;28.49;50.54
67759;SHT31;54562;47.620;18.786;2022-08-18T07:35:46;28.54;50.53
67759;SHT31;54562;47.620;18.786;2022-08-18T07:39:02;28.63;50.34
67759;SHT31;54562;47.620;18.786;2022-08-18T07:42:20;28.69;50.28
67759;SHT31;54562;47.620;18.786;2022-08-18T07:46:03;28.78;49.90
67759;SHT31;54562;47.620;18.786;2022-08-18T07:49:20;28.85;49.90
67759;SHT31;54562;47.620;18.786;2022-08-18T07:52:35;28.99;49.74
67759;SHT31;54562;47.620;18.786;2022-08-18T07:55:58;29.16;49.29
67759;SHT31;54562;47.620;18.786;2022-08-18T07:59:13;29.25;49.22
67759;SHT31;54562;47.620;18.786;2022-08-18T08:02:39;29.34;48.70
67759;SHT31;54562;47.620;18.786;2022-08-18T08:06:08;29.38;48.34
67759;SHT31;54562;47.620;18.786;2022-08-18T08:09:24;29.45;48.30
67759;SHT31;54562;47.620;18.786;2022-08-18T08:12:43;29.59;48.09
67759;SHT31;54562;47.620;18.786;2022-08-18T08:16:13;29.74;47.77
67759;SHT31;54562;47.620;18.786;2022-08-18T08:19:43;29.88;47.46
67759;SHT31;54562;47.620;18.786;2022-08-18T08:23:13;30.01;47.15
67759;SHT31;54562;47.620;18.786;2022-08-18T08:26:35;30.14;46.68
67759;SHT31;54562;47.620;18.786;2022-08-18T08:29:58;30.24;46.83
67759;SHT31;54562;47.620;18.786;2022-08-18T08:33:12;30.40;46.53
67759;SHT31;54562;47.620;18.786;2022-08-18T08:36:30;30.52;45.97
67759;SHT31;54562;47.620;18.786;2022-08-18T08:39:45;30.65;45.88
67759;SHT31;54562;47.620;18.786;2022-08-18T08:43:02;30.77;45.72
67759;SHT31;54562;47.620;18.786;2022-08-18T08:46:16;30.92;45.22
67759;SHT31;54562;47.620;18.786;2022-08-18T08:49:34;31.06;44.51
67759;SHT31;54562;47.620;18.786;2022-08-18T08:53:04;31.19;44.75
67759;SHT31;54562;47.620;18.786;2022-08-18T08:56:25;31.40;44.22
67759;SHT31;54562;47.620;18.786;2022-08-18T08:59:38;31.56;43.72
67759;SHT31;54562;47.620;18.786;2022-08-18T09:02:53;31.63;43.22
67759;SHT31;54562;47.620;18.786;2022-08-18T09:06:20;31.73;42.98
67759;SHT31;54562;47.620;18.786;2022-08-18T09:14:03;32.00;41.97
67759;SHT31;54562;47.620;18.786;2022-08-18T09:17:40;32.10;41.81
67759;SHT31;54562;47.620;18.786;2022-08-18T09:21:12;32.24;41.58
67759;SHT31;54562;47.620;18.786;2022-08-18T09:24:39;32.37;40.67
67759;SHT31;54562;47.620;18.786;2022-08-18T09:27:54;32.51;40.32
67759;SHT31;54562;47.620;18.786;2022-08-18T09:31:16;32.67;40.30
67759;SHT31;54562;47.620;18.786;2022-08-18T09:34:31;32.84;39.72
67759;SHT31;54562;47.620;18.786;2022-08-18T09:37:55;32.92;39.11
67759;SHT31;54562;47.620;18.786;2022-08-18T09:41:47;33.04;38.76
67759;SHT31;54562;47.620;18.786;2022-08-18T09:45:01;33.17;38.30
67759;SHT31;54562;47.620;18.786;2022-08-18T09:48:36;33.35;37.71
67759;SHT31;54562;47.620;18.786;2022-08-18T09:51:48;33.51;37.45
67759;SHT31;54562;47.620;18.786;2022-08-18T09:54:59;33.67;36.77
67759;SHT31;54562;47.620;18.786;2022-08-18T09:58:51;33.77;36.92
67759;SHT31;54562;47.620;18.786;2022-08-18T10:06:18;34.08;36.24
67759;SHT31;54562;47.620;18.786;2022-08-18T10:09:31;34.11;35.96
67759;SHT31;54562;47.620;18.786;2022-08-18T10:12:58;34.19;35.96
67759;SHT31;54562;47.620;18.786;2022-08-18T10:16:27;34.31;35.45
67759;SHT31;54562;47.620;18.786;2022-08-18T10:20:18;34.42;35.17
67759;SHT31;54562;47.620;18.786;2022-08-18T10:23:51;34.46;35.31
67759;SHT31;54562;47.620;18.786;2022-08-18T10:27:46;34.69;34.63
67759;SHT31;54562;47.620;18.786;2022-08-18T10:34:14;35.13;32.99
67759;SHT31;54562;47.620;18.786;2022-08-18T10:37:54;35.29;32.79
67759;SHT31;54562;47.620;18.786;2022-08-18T10:41:12;35.52;32.91
67759;SHT31;54562;47.620;18.786;2022-08-18T10:44:51;35.97;32.45
67759;SHT31;54562;47.620;18.786;2022-08-18T10:48:14;35.91;31.34
67759;SHT31;54562;47.620;18.786;2022-08-18T10:51:54;35.65;31.36
67759;SHT31;54562;47.620;18.786;2022-08-18T10:55:49;35.54;31.95
67759;SHT31;54562;47.620;18.786;2022-08-18T10:59:09;35.58;31.84
67759;SHT31;54562;47.620;18.786;2022-08-18T11:02:37;35.59;31.74
67759;SHT31;54562;47.620;18.786;2022-08-18T11:06:25;35.67;31.42
67759;SHT31;54562;47.620;18.786;2022-08-18T11:09:40;35.76;31.53
67759;SHT31;54562;47.620;18.786;2022-08-18T11:13:09;36.03;30.99
67759;SHT31;54562;47.620;18.786;2022-08-18T11:16:35;36.27;30.22
67759;SHT31;54562;47.620;18.786;2022-08-18T11:19:56;36.54;30.08
67759;SHT31;54562;47.620;18.786;2022-08-18T11:23:13;36.69;29.45
67759;SHT31;54562;47.620;18.786;2022-08-18T11:26:24;36.82;29.25
67759;SHT31;54562;47.620;18.786;2022-08-18T11:29:37;36.93;29.09
67759;SHT31;54562;47.620;18.786;2022-08-18T11:32:49;37.00;28.87
67759;SHT31;54562;47.620;18.786;2022-08-18T11:35:58;37.25;28.55
67759;SHT31;54562;47.620;18.786;2022-08-18T11:39:08;37.49;27.33
67759;SHT31;54562;47.620;18.786;2022-08-18T11:42:18;37.49;27.36
67759;SHT31;54562;47.620;18.786;2022-08-18T11:45:46;37.55;27.50
67759;SHT31;54562;47.620;18.786;2022-08-18T11:49:11;37.52;27.29
67759;SHT31;54562;47.620;18.786;2022-08-18T11:52:28;37.62;27.38
67759;SHT31;54562;47.620;18.786;2022-08-18T11:56:02;37.59;26.90
67759;SHT31;54562;47.620;18.786;2022-08-18T11:59:32;37.41;26.80
67759;SHT31;54562;47.620;18.786;2022-08-18T12:03:01;37.25;27.22
67759;SHT31;54562;47.620;18.786;2022-08-18T12:06:27;37.21;27.38
67759;SHT31;54562;47.620;18.786;2022-08-18T12:09:39;37.19;26.73
67759;SHT31;54562;47.620;18.786;2022-08-18T12:13:10;37.11;26.90
67759;SHT31;54562;47.620;18.786;2022-08-18T12:16:32;37.23;26.82
67759;SHT31;54562;47.620;18.786;2022-08-18T12:19:48;37.32;26.50
67759;SHT31;54562;47.620;18.786;2022-08-18T12:22:59;37.44;26.75
67759;SHT31;54562;47.620;18.786;2022-08-18T12:26:09;37.49;26.47
67759;SHT31;54562;47.620;18.786;2022-08-18T12:29:37;37.54;26.61
67759;SHT31;54562;47.620;18.786;2022-08-18T12:32:46;37.49;27.02
67759;SHT31;54562;47.620;18.786;2022-08-18T12:36:03;37.59;26.58
67759;SHT31;54562;47.620;18.786;2022-08-18T12:39:16;37.56;26.55
67759;SHT31;54562;47.620;18.786;2022-08-18T12:42:26;37.65;26.65
67759;SHT31;54562;47.620;18.786;2022-08-18T12:45:34;37.82;26.27
67759;SHT31;54562;47.620;18.786;2022-08-18T12:48:43;37.94;26.37
67759;SHT31;54562;47.620;18.786;2022-08-18T12:51:52;38.11;25.79
67759;SHT31;54562;47.620;18.786;2022-08-18T12:55:06;38.02;25.73
67759;SHT31;54562;47.620;18.786;2022-08-18T12:58:24;37.89;25.97
67759;SHT31;54562;47.620;18.786;2022-08-18T13:01:32;37.88;26.24
67759;SHT31;54562;47.620;18.786;2022-08-18T13:04:45;38.08;26.48
67759;SHT31;54562;47.620;18.786;2022-08-18T13:08:00;38.41;25.92
67759;SHT31;54562;47.620;18.786;2022-08-18T13:11:29;38.49;25.86
67759;SHT31;54562;47.620;18.786;2022-08-18T13:14:38;38.62;25.50
67759;SHT31;54562;47.620;18.786;2022-08-18T13:17:47;38.57;25.35
67759;SHT31;54562;47.620;18.786;2022-08-18T13:20:57;38.62;25.56
67759;SHT31;54562;47.620;18.786;2022-08-18T13:24:09;38.85;25.51
67759;SHT31;54562;47.620;18.786;2022-08-18T13:27:23;38.96;25.29
67759;SHT31;54562;47.620;18.786;2022-08-18T13:30:38;39.09;25.27
67759;SHT31;54562;47.620;18.786;2022-08-18T13:33:47;39.21;25.18
67759;SHT31;54562;47.620;18.786;2022-08-18T13:37:01;39.21;24.61
67759;SHT31;54562;47.620;18.786;2022-08-18T13:40:10;39.10;24.60
67759;SHT31;54562;47.620;18.786;2022-08-18T13:43:21;39.09;24.65
67759;SHT31;54562;47.620;18.786;2022-08-18T13:46:36;39.12;24.71
67759;SHT31;54562;47.620;18.786;2022-08-18T13:49:48;39.11;24.56
67759;SHT31;54562;47.620;18.786;2022-08-18T13:53:01;39.06;24.93
67759;SHT31;54562;47.620;18.786;2022-08-18T13:56:10;39.24;25.08
67759;SHT31;54562;47.620;18.786;2022-08-18T13:59:21;39.29;24.86
67759;SHT31;54562;47.620;18.786;2022-08-18T14:02:33;39.08;24.24
67759;SHT31;54562;47.620;18.786;2022-08-18T14:05:43;38.97;24.23
67759;SHT31;54562;47.620;18.786;2022-08-18T14:08:54;39.08;24.70
67759;SHT31;54562;47.620;18.786;2022-08-18T14:12:22;39.31;25.17
67759;SHT31;54562;47.620;18.786;2022-08-18T14:15:35;39.53;25.06
67759;SHT31;54562;47.620;18.786;2022-08-18T14:18:43;39.60;24.45
67759;SHT31;54562;47.620;18.786;2022-08-18T14:22:12;39.40;23.91
67759;SHT31;54562;47.620;18.786;2022-08-18T14:25:37;39.00;23.97
67759;SHT31;54562;47.620;18.786;2022-08-18T14:29:03;38.83;24.10
67759;SHT31;54562;47.620;18.786;2022-08-18T14:32:13;38.87;24.07
67759;SHT31;54562;47.620;18.786;2022-08-18T14:35:32;38.97;23.85
67759;SHT31;54562;47.620;18.786;2022-08-18T14:39:01;38.91;23.49
67759;SHT31;54562;47.620;18.786;2022-08-18T14:42:10;38.84;23.51
67759;SHT31;54562;47.620;18.786;2022-08-18T14:45:35;38.89;23.33
67759;SHT31;54562;47.620;18.786;2022-08-18T14:48:48;38.83;23.60
67759;SHT31;54562;47.620;18.786;2022-08-18T14:51:57;38.66;23.63
67759;SHT31;54562;47.620;18.786;2022-08-18T14:55:13;38.42;23.97
67759;SHT31;54562;47.620;18.786;2022-08-18T14:58:23;38.22;24.31
67759;SHT31;54562;47.620;18.786;2022-08-18T15:01:35;38.09;24.73
67759;SHT31;54562;47.620;18.786;2022-08-18T15:04:44;37.99;24.74
67759;SHT31;54562;47.620;18.786;2022-08-18T15:07:59;37.82;24.68
67759;SHT31;54562;47.620;18.786;2022-08-18T15:11:11;37.68;24.97
67759;SHT31;54562;47.620;18.786;2022-08-18T15:14:25;37.70;24.94
67759;SHT31;54562;47.620;18.786;2022-08-18T15:17:36;37.67;24.91
67759;SHT31;54562;47.620;18.786;2022-08-18T15:20:45;37.52;25.04
67759;SHT31;54562;47.620;18.786;2022-08-18T15:24:33;37.29;25.09
67759;SHT31;54562;47.620;18.786;2022-08-18T15:28:02;37.03;25.49
67759;SHT31;54562;47.620;18.786;2022-08-18T15:31:18;36.87;25.65
67759;SHT31;54562;47.620;18.786;2022-08-18T15:34:46;36.74;25.64
67759;SHT31;54562;47.620;18.786;2022-08-18T15:37:55;36.61;25.70
67759;SHT31;54562;47.620;18.786;2022-08-18T15:41:07;36.52;25.76
67759;SHT31;54562;47.620;18.786;2022-08-18T15:44:24;36.41;25.87
67759;SHT31;54562;47.620;18.786;2022-08-18T15:47:32;36.27;26.06
67759;SHT31;54562;47.620;18.786;2022-08-18T15:50:42;36.15;26.49
67759;SHT31;54562;47.620;18.786;2022-08-18T15:53:53;36.04;26.13
67759;SHT31;54562;47.620;18.786;2022-08-18T15:57:03;35.89;26.23
67759;SHT31;54562;47.620;18.786;2022-08-18T16:00:36;35.77;26.50
67759;SHT31;54562;47.620;18.786;2022-08-18T16:03:48;35.65;26.63
67759;SHT31;54562;47.620;18.786;2022-08-18T16:06:58;35.52;26.65
67759;SHT31;54562;47.620;18.786;2022-08-18T16:10:07;35.40;27.04
67759;SHT31;54562;47.620;18.786;2022-08-18T16:13:16;35.32;27.02
67759;SHT31;54562;47.620;18.786;2022-08-18T16:16:25;35.17;27.24
67759;SHT31;54562;47.620;18.786;2022-08-18T16:19:38;35.07;27.43
67759;SHT31;54562;47.620;18.786;2022-08-18T16:22:47;34.97;27.46
67759;SHT31;54562;47.620;18.786;2022-08-18T16:25:58;34.86;27.20
67759;SHT31;54562;47.620;18.786;2022-08-18T16:29:07;34.72;27.38
67759;SHT31;54562;47.620;18.786;2022-08-18T16:32:16;34.59;27.78
67759;SHT31;54562;47.620;18.786;2022-08-18T16:35:23;34.50;27.99
67759;SHT31;54562;47.620;18.786;2022-08-18T16:38:31;34.42;28.29
67759;SHT31;54562;47.620;18.786;2022-08-18T16:41:41;34.34;28.18
67759;SHT31;54562;47.620;18.786;2022-08-18T16:44:49;34.26;28.69
67759;SHT31;54562;47.620;18.786;2022-08-18T16:47:58;34.20;28.81
67759;SHT31;54562;47.620;18.786;2022-08-18T16:51:06;34.14;28.92
67759;SHT31;54562;47.620;18.786;2022-08-18T16:54:19;34.00;28.87
67759;SHT31;54562;47.620;18.786;2022-08-18T16:57:26;33.88;29.24
67759;SHT31;54562;47.620;18.786;2022-08-18T17:00:57;33.79;30.16
67759;SHT31;54562;47.620;18.786;2022-08-18T17:04:25;33.71;30.58
67759;SHT31;54562;47.620;18.786;2022-08-18T17:07:36;33.60;31.27
67759;SHT31;54562;47.620;18.786;2022-08-18T17:10:44;33.47;31.08
67759;SHT31;54562;47.620;18.786;2022-08-18T17:13:52;33.34;32.07
67759;SHT31;54562;47.620;18.786;2022-08-18T17:17:03;33.22;31.97
67759;SHT31;54562;47.620;18.786;2022-08-18T17:20:12;33.09;32.07
67759;SHT31;54562;47.620;18.786;2022-08-18T17:23:21;32.97;32.06
67759;SHT31;54562;47.620;18.786;2022-08-18T17:26:31;32.84;31.75
67759;SHT31;54562;47.620;18.786;2022-08-18T17:29:52;32.68;31.57
67759;SHT31;54562;47.620;18.786;2022-08-18T17:33:09;32.41;31.43
67759;SHT31;54562;47.620;18.786;2022-08-18T17:36:28;32.17;31.84
67759;SHT31;54562;47.620;18.786;2022-08-18T17:39:45;31.98;32.02
67759;SHT31;54562;47.620;18.786;2022-08-18T17:43:13;31.80;32.33
67759;SHT31;54562;47.620;18.786;2022-08-18T17:46:26;31.67;32.41
67759;SHT31;54562;47.620;18.786;2022-08-18T17:49:43;31.49;32.59
67759;SHT31;54562;47.620;18.786;2022-08-18T17:53:30;31.23;33.00
67759;SHT31;54562;47.620;18.786;2022-08-18T17:56:41;31.04;33.36
67759;SHT31;54562;47.620;18.786;2022-08-18T17:59:57;30.90;33.57
67759;SHT31;54562;47.620;18.786;2022-08-18T18:03:15;30.77;33.74
67759;SHT31;54562;47.620;18.786;2022-08-18T18:06:25;30.65;33.92
67759;SHT31;54562;47.620;18.786;2022-08-18T18:09:42;30.51;34.05
67759;SHT31;54562;47.620;18.786;2022-08-18T18:13:08;30.35;35.53
67759;SHT31;54562;47.620;18.786;2022-08-18T18:16:28;30.18;34.97
67759;SHT31;54562;47.620;18.786;2022-08-18T18:19:38;30.02;35.05
67759;SHT31;54562;47.620;18.786;2022-08-18T18:22:48;29.88;35.28
67759;SHT31;54562;47.620;18.786;2022-08-18T18:25:58;29.75;35.50
67759;SHT31;54562;47.620;18.786;2022-08-18T18:29:30;29.62;35.75
67759;SHT31;54562;47.620;18.786;2022-08-18T18:32:49;29.50;35.94
67759;SHT31;54562;47.620;18.786;2022-08-18T18:36:05;29.37;36.17
67759;SHT31;54562;47.620;18.786;2022-08-18T18:39:16;29.27;36.31
67759;SHT31;54562;47.620;18.786;2022-08-18T18:42:36;29.17;36.45
67759;SHT31;54562;47.620;18.786;2022-08-18T18:45:44;29.12;36.51
67759;SHT31;54562;47.620;18.786;2022-08-18T18:49:22;29.04;36.70
67759;SHT31;54562;47.620;18.786;2022-08-18T18:52:38;28.98;36.85
67759;SHT31;54562;47.620;18.786;2022-08-18T18:56:02;28.92;36.92
67759;SHT31;54562;47.620;18.786;2022-08-18T18:59:23;28.89;36.97
67759;SHT31;54562;47.620;18.786;2022-08-18T19:02:55;28.91;36.98
67759;SHT31;54562;47.620;18.786;2022-08-18T19:06:16;28.91;36.95
67759;SHT31;54562;47.620;18.786;2022-08-18T19:09:32;28.92;36.90
67759;SHT31;54562;47.620;18.786;2022-08-18T19:12:53;28.93;36.99
67759;SHT31;54562;47.620;18.786;2022-08-18T19:16:10;28.92;37.15
67759;SHT31;54562;47.620;18.786;2022-08-18T19:19:28;28.89;37.41
67759;SHT31;54562;47.620;18.786;2022-08-18T19:22:43;28.88;37.68
67759;SHT31;54562;47.620;18.786;2022-08-18T19:25:59;28.86;37.58
67759;SHT31;54562;47.620;18.786;2022-08-18T19:29:15;28.86;37.38
67759;SHT31;54562;47.620;18.786;2022-08-18T19:32:33;28.88;37.32
67759;SHT31;54562;47.620;18.786;2022-08-18T19:35:47;28.88;37.19
67759;SHT31;54562;47.620;18.786;2022-08-18T19:39:09;28.91;37.13
67759;SHT31;54562;47.620;18.786;2022-08-18T19:42:25;28.95;37.06
67759;SHT31;54562;47.620;18.786;2022-08-18T19:45:43;28.97;37.16
67759;SHT31;54562;47.620;18.786;2022-08-18T19:49:01;28.98;37.17
67759;SHT31;54562;47.620;18.786;2022-08-18T19:52:27;29.03;37.12
67759;SHT31;54562;47.620;18.786;2022-08-18T19:55:58;29.07;36.99
67759;SHT31;54562;47.620;18.786;2022-08-18T19:59:29;29.03;37.14
67759;SHT31;54562;47.620;18.786;2022-08-18T20:02:49;28.99;37.26
67759;SHT31;54562;47.620;18.786;2022-08-18T20:06:39;28.96;37.32
67759;SHT31;54562;47.620;18.786;2022-08-18T20:10:23;28.95;37.35
67759;SHT31;54562;47.620;18.786;2022-08-18T20:13:44;28.94;37.42
67759;SHT31;54562;47.620;18.786;2022-08-18T20:17:09;28.94;37.58
67759;SHT31;54562;47.620;18.786;2022-08-18T20:20:23;28.92;37.72
67759;SHT31;54562;47.620;18.786;2022-08-18T20:23:34;28.89;37.82
67759;SHT31;54562;47.620;18.786;2022-08-18T20:27:15;28.84;37.99
67759;SHT31;54562;47.620;18.786;2022-08-18T20:30:50;28.80;38.17
67759;SHT31;54562;47.620;18.786;2022-08-18T20:34:09;28.76;38.37